createdAt,value
2023-05-08T00:00:05.812Z,4.30
2023-05-08T00:02:32.470Z,4.57
2023-05-08T00:04:59.294Z,4.70
2023-05-08T00:07:26.030Z,4.87
2023-05-08T00:09:52.647Z,4.40
2023-05-08T00:12:19.241Z,4.97
2023-05-08T00:14:45.853Z,4.63
2023-05-08T00:17:12.524Z,4.80
2023-05-08T00:19:39.130Z,4.70
2023-05-08T00:22:05.734Z,5.10
2023-05-08T00:24:32.362Z,4.60
2023-05-08T00:26:58.990Z,4.60
2023-05-08T00:29:25.618Z,4.67
2023-05-08T00:31:52.448Z,4.87
2023-05-08T00:34:19.060Z,4.73
2023-05-08T00:36:45.677Z,5.00
2023-05-08T00:39:12.534Z,5.33
2023-05-08T00:41:39.345Z,5.00
2023-05-08T00:44:05.989Z,5.30
2023-05-08T00:46:32.821Z,5.00
2023-05-08T00:48:59.976Z,4.67
2023-05-08T00:51:27.816Z,5.20
2023-05-08T00:53:54.616Z,4.47
2023-05-08T00:56:22.487Z,4.97
2023-05-08T00:58:49.790Z,4.90
2023-05-08T01:01:16.945Z,4.60
2023-05-08T01:03:44.810Z,4.60
2023-05-08T01:06:11.628Z,4.80
2023-05-08T01:08:38.426Z,5.27
2023-05-08T01:11:15.174Z,4.60
2023-05-08T01:14:07.733Z,4.70
2023-05-08T01:16:52.525Z,5.17
2023-05-08T01:19:37.220Z,4.70
2023-05-08T01:22:15.698Z,4.80
2023-05-08T01:25:13.558Z,4.60
2023-05-08T01:28:12.133Z,4.40
2023-05-08T01:31:11.691Z,4.30
2023-05-08T01:34:22.896Z,4.73
2023-05-08T01:37:00.878Z,4.10
2023-05-08T01:39:50.010Z,4.53
2023-05-08T01:42:28.931Z,4.20
2023-05-08T01:45:03.327Z,4.30
2023-05-08T01:47:33.091Z,4.43
2023-05-08T01:50:08.917Z,4.50
2023-05-08T01:52:43.265Z,4.30
2023-05-08T01:55:13.974Z,4.67
2023-05-08T01:57:46.645Z,4.97
2023-05-08T02:00:17.149Z,4.50
2023-05-08T02:02:45.070Z,4.37
2023-05-08T02:05:14.124Z,4.23
2023-05-08T02:07:43.315Z,6.03
2023-05-08T02:10:11.553Z,4.60
2023-05-08T02:12:39.905Z,4.50
2023-05-08T02:15:09.127Z,4.17
2023-05-08T02:17:39.604Z,7.30
2023-05-08T02:20:07.708Z,4.13
2023-05-08T02:22:35.647Z,4.60
2023-05-08T02:25:03.345Z,4.53
2023-05-08T02:27:31.352Z,4.63
2023-05-08T02:30:00.541Z,4.40
2023-05-08T02:32:28.007Z,4.30
2023-05-08T02:35:02.981Z,4.17
2023-05-08T02:37:31.915Z,4.87
2023-05-08T02:40:01.332Z,4.33
2023-05-08T02:42:27.978Z,4.60
2023-05-08T02:44:54.596Z,4.37
2023-05-08T02:47:39.454Z,4.63
2023-05-08T02:50:11.517Z,5.17
2023-05-08T02:52:54.402Z,4.37
2023-05-08T02:55:34.629Z,6.43
2023-05-08T02:58:14.562Z,4.40
2023-05-08T03:00:56.678Z,4.60
2023-05-08T03:03:27.302Z,4.20
2023-05-08T03:05:56.667Z,4.60
2023-05-08T03:08:35.182Z,4.87
2023-05-08T03:11:08.295Z,4.30
2023-05-08T03:13:37.032Z,4.93
2023-05-08T03:16:06.423Z,4.57
2023-05-08T03:18:45.303Z,5.40
2023-05-08T03:21:13.490Z,4.90
2023-05-08T03:23:42.507Z,4.40
2023-05-08T03:26:10.477Z,4.83
2023-05-08T03:28:39.060Z,6.67
2023-05-08T03:31:06.835Z,5.03
2023-05-08T03:33:37.088Z,6.43
2023-05-08T03:36:03.965Z,4.80
2023-05-08T03:38:30.705Z,4.43
2023-05-08T03:40:59.523Z,4.80
2023-05-08T03:43:26.884Z,4.87
2023-05-08T03:45:55.256Z,5.00
2023-05-08T03:48:22.584Z,5.40
2023-05-08T03:50:50.436Z,5.30
2023-05-08T03:53:17.467Z,5.23
2023-05-08T03:55:44.198Z,5.37
2023-05-08T03:58:24.583Z,5.40
2023-05-08T04:01:01.863Z,5.13
2023-05-08T04:03:55.067Z,5.60
2023-05-08T04:06:49.874Z,5.70
2023-05-08T04:09:27.962Z,5.50
2023-05-08T04:12:06.879Z,5.60
2023-05-08T04:14:44.093Z,8.90
2023-05-08T04:17:14.315Z,5.53
2023-05-08T04:19:46.147Z,5.97
2023-05-08T04:22:14.162Z,6.00
2023-05-08T04:24:45.693Z,5.90
2023-05-08T04:27:13.487Z,6.20
2023-05-08T04:29:40.620Z,6.17
2023-05-08T04:32:08.380Z,5.77
2023-05-08T04:34:36.205Z,6.00
2023-05-08T04:37:03.564Z,6.00
2023-05-08T04:39:30.258Z,5.60
2023-05-08T04:42:02.559Z,5.90
2023-05-08T04:44:29.629Z,5.50
2023-05-08T04:46:56.469Z,5.67
2023-05-08T04:49:23.198Z,6.60
2023-05-08T04:51:49.833Z,6.10
2023-05-08T04:54:16.466Z,6.40
2023-05-08T04:56:43.042Z,6.50
2023-05-08T04:59:09.688Z,6.03
2023-05-08T05:01:36.342Z,5.97
2023-05-08T05:04:03.404Z,6.30
2023-05-08T05:06:31.166Z,5.57
2023-05-08T05:08:57.835Z,5.77
2023-05-08T05:11:24.684Z,6.40
2023-05-08T05:13:51.291Z,5.53
2023-05-08T05:16:17.999Z,5.87
2023-05-08T05:18:44.653Z,6.43
2023-05-08T05:21:11.440Z,6.00
2023-05-08T05:23:38.170Z,6.20
2023-05-08T05:26:04.936Z,6.17
2023-05-08T05:28:31.611Z,6.53
2023-05-08T05:30:58.411Z,5.93
2023-05-08T05:33:25.105Z,9.67
2023-05-08T05:35:51.688Z,6.03
2023-05-08T05:38:18.380Z,6.17
2023-05-08T05:40:44.990Z,6.20
2023-05-08T05:43:12.621Z,6.67
2023-05-08T05:45:40.280Z,5.93
2023-05-08T05:48:07.120Z,6.30
2023-05-08T05:50:33.814Z,5.50
2023-05-08T05:53:00.850Z,6.60
2023-05-08T05:55:27.570Z,6.20
2023-05-08T05:57:54.233Z,7.97
2023-05-08T06:00:21.484Z,7.37
2023-05-08T06:02:48.415Z,6.57
2023-05-08T06:05:15.224Z,5.97
2023-05-08T06:07:41.941Z,5.67
2023-05-08T06:10:09.227Z,5.43
2023-05-08T06:12:35.955Z,5.47
2023-05-08T06:15:03.069Z,8.43
2023-05-08T06:17:29.809Z,6.27
2023-05-08T06:19:56.588Z,6.47
2023-05-08T06:22:24.314Z,5.53
2023-05-08T06:24:54.590Z,6.47
2023-05-08T06:27:25.170Z,6.73
2023-05-08T06:29:53.184Z,6.87
2023-05-08T06:32:20.540Z,6.17
2023-05-08T06:34:47.561Z,6.17
2023-05-08T06:37:14.307Z,6.10
2023-05-08T06:39:40.945Z,6.60
2023-05-08T06:42:08.230Z,6.10
2023-05-08T06:44:35.917Z,6.30
2023-05-08T06:47:03.020Z,6.50
2023-05-08T06:49:29.972Z,7.47
2023-05-08T06:51:58.013Z,8.07
2023-05-08T06:54:25.026Z,6.20
2023-05-08T06:56:53.879Z,9.03
2023-05-08T06:59:23.153Z,8.00
2023-05-08T07:01:50.578Z,7.70
2023-05-08T07:04:17.417Z,6.20
2023-05-08T07:06:44.080Z,7.00
2023-05-08T07:09:12.127Z,8.03
2023-05-08T07:11:38.873Z,6.63
2023-05-08T07:14:05.554Z,5.97
2023-05-08T07:16:32.478Z,6.17
2023-05-08T07:18:59.264Z,6.47
2023-05-08T07:21:26.204Z,6.83
2023-05-08T07:23:53.747Z,5.73
2023-05-08T07:26:21.412Z,7.40
2023-05-08T07:28:48.491Z,7.87
2023-05-08T07:31:15.177Z,5.80
2023-05-08T07:33:41.887Z,5.60
2023-05-08T07:36:08.580Z,7.13
2023-05-08T07:38:36.575Z,5.87
2023-05-08T07:41:05.146Z,6.93
2023-05-08T07:43:32.179Z,8.00
2023-05-08T07:45:59.062Z,6.20
2023-05-08T07:48:25.898Z,8.80
2023-05-08T07:50:52.543Z,7.93
2023-05-08T07:53:19.245Z,5.57
2023-05-08T07:55:45.845Z,6.53
2023-05-08T07:58:12.481Z,6.73
2023-05-08T08:00:40.667Z,6.60
2023-05-08T08:03:07.696Z,6.10
2023-05-08T08:05:34.785Z,10.33
2023-05-08T08:08:01.555Z,6.43
2023-05-08T08:10:28.440Z,6.20
2023-05-08T08:12:55.137Z,6.57
2023-05-08T08:15:21.799Z,6.30
2023-05-08T08:17:48.955Z,6.80
2023-05-08T08:20:15.850Z,7.10
2023-05-08T08:22:42.511Z,7.03
2023-05-08T08:25:09.294Z,6.87
2023-05-08T08:27:35.938Z,7.90
2023-05-08T08:30:12.777Z,7.93
2023-05-08T08:32:43.300Z,6.73
2023-05-08T08:35:10.369Z,6.43
2023-05-08T08:37:37.105Z,7.00
2023-05-08T08:40:04.051Z,7.07
2023-05-08T08:42:31.592Z,7.33
2023-05-08T08:44:58.297Z,8.17
2023-05-08T08:47:34.633Z,6.80
2023-05-08T08:50:03.725Z,6.93
2023-05-08T08:52:37.135Z,8.43
2023-05-08T08:55:08.725Z,6.97
2023-05-08T08:57:39.015Z,6.63
2023-05-08T09:00:08.762Z,9.00
2023-05-08T09:02:35.882Z,10.47
2023-05-08T09:05:03.579Z,8.90
2023-05-08T09:07:30.471Z,6.80
2023-05-08T09:09:57.457Z,7.33
2023-05-08T09:12:24.220Z,7.20
2023-05-08T09:14:51.234Z,9.60
2023-05-08T09:17:17.846Z,6.30
2023-05-08T09:19:45.060Z,7.53
2023-05-08T09:22:12.420Z,9.00
2023-05-08T09:24:57.218Z,7.03
2023-05-08T09:27:25.932Z,7.63
2023-05-08T09:30:03.171Z,7.20
2023-05-08T09:32:31.470Z,8.13
2023-05-08T09:34:58.832Z,6.77
2023-05-08T09:37:26.837Z,7.03
2023-05-08T09:39:54.202Z,7.87
2023-05-08T09:42:21.021Z,6.60
2023-05-08T09:44:54.819Z,7.07
2023-05-08T09:47:23.777Z,9.17
2023-05-08T09:50:10.716Z,6.27
2023-05-08T09:52:38.781Z,6.90
2023-05-08T09:55:10.523Z,6.60
2023-05-08T09:57:40.303Z,6.33
2023-05-08T10:00:12.674Z,7.80
2023-05-08T10:02:42.210Z,7.80
2023-05-08T10:05:32.384Z,7.13
2023-05-08T10:08:18.487Z,7.57
2023-05-08T10:10:45.191Z,7.70
2023-05-08T10:13:11.970Z,7.90
2023-05-08T10:15:41.698Z,7.17
2023-05-08T10:18:09.368Z,7.23
2023-05-08T10:20:39.748Z,8.33
2023-05-08T10:23:11.416Z,6.30
2023-05-08T10:25:46.389Z,8.10
2023-05-08T10:28:43.090Z,6.47
2023-05-08T10:31:13.669Z,6.50
2023-05-08T10:33:41.655Z,8.33
2023-05-08T10:36:10.074Z,7.17
2023-05-08T10:38:37.815Z,6.87
2023-05-08T10:41:05.202Z,7.90
2023-05-08T10:43:33.417Z,7.83
2023-05-08T10:46:08.212Z,7.30
2023-05-08T10:48:43.688Z,7.30
2023-05-08T10:52:00.711Z,7.47
2023-05-08T10:54:47.246Z,7.63
2023-05-08T10:57:14.910Z,8.73
2023-05-08T10:59:46.775Z,6.40
2023-05-08T11:02:13.694Z,6.77
2023-05-08T11:04:40.780Z,6.77
2023-05-08T11:07:07.947Z,7.90
2023-05-08T11:09:53.448Z,7.40
2023-05-08T11:12:25.502Z,8.30
2023-05-08T11:15:06.589Z,8.63
2023-05-08T11:17:34.081Z,7.47
2023-05-08T11:20:05.799Z,7.70
2023-05-08T11:22:37.637Z,6.23
2023-05-08T11:25:09.967Z,7.27
2023-05-08T11:27:39.169Z,7.33
2023-05-08T11:30:25.555Z,12.03
2023-05-08T11:33:05.749Z,10.30
2023-05-08T11:35:49.280Z,9.63
2023-05-08T11:38:36.474Z,7.10
2023-05-08T11:41:07.337Z,7.70
2023-05-08T11:43:34.080Z,7.37
2023-05-08T11:46:01.999Z,8.03
2023-05-08T11:48:28.874Z,6.73
2023-05-08T11:50:55.888Z,10.63
2023-05-08T11:53:22.852Z,6.90
2023-05-08T11:55:50.295Z,6.57
2023-05-08T11:58:16.954Z,8.40
2023-05-08T12:00:45.828Z,7.07
2023-05-08T12:03:17.211Z,11.83
2023-05-08T12:05:44.474Z,6.90
2023-05-08T12:08:12.679Z,7.50
2023-05-08T12:10:53.177Z,6.43
2023-05-08T12:13:20.601Z,7.07
2023-05-08T12:15:48.879Z,9.13
2023-05-08T12:18:17.049Z,9.80
2023-05-08T12:20:44.618Z,9.03
2023-05-08T12:23:11.296Z,6.53
2023-05-08T12:25:39.226Z,7.23
2023-05-08T12:28:12.024Z,8.30
2023-05-08T12:30:38.818Z,7.70
2023-05-08T12:33:06.633Z,7.60
2023-05-08T12:35:33.658Z,7.90
2023-05-08T12:38:06.060Z,8.93
2023-05-08T12:40:36.265Z,9.33
2023-05-08T12:43:03.971Z,7.93
2023-05-08T12:45:34.417Z,10.50
2023-05-08T12:48:06.319Z,6.67
2023-05-08T12:50:38.226Z,7.47
2023-05-08T12:53:10.269Z,7.10
2023-05-08T12:55:39.525Z,11.90
2023-05-08T12:58:07.743Z,6.90
2023-05-08T13:00:48.743Z,7.57
2023-05-08T13:03:26.821Z,6.90
2023-05-08T13:05:55.417Z,8.10
2023-05-08T13:08:31.119Z,6.50
2023-05-08T13:10:59.166Z,7.17
2023-05-08T13:13:27.608Z,9.67
2023-05-08T13:15:55.263Z,8.27
2023-05-08T13:18:25.413Z,8.17
2023-05-08T13:20:52.109Z,8.13
2023-05-08T13:23:18.681Z,10.57
2023-05-08T13:25:45.333Z,8.03
2023-05-08T13:28:11.952Z,7.17
2023-05-08T13:30:40.478Z,7.77
2023-05-08T13:33:07.701Z,7.50
2023-05-08T13:35:35.165Z,7.67
2023-05-08T13:38:02.154Z,9.77
2023-05-08T13:40:29.705Z,8.37
2023-05-08T13:42:56.309Z,10.00
2023-05-08T13:45:23.005Z,8.03
2023-05-08T13:47:50.991Z,6.87
2023-05-08T13:50:19.485Z,9.80
2023-05-08T13:52:46.073Z,7.40
2023-05-08T13:55:22.768Z,6.67
2023-05-08T13:57:49.664Z,6.63
2023-05-08T14:00:17.096Z,6.80
2023-05-08T14:02:43.917Z,6.63
2023-05-08T14:05:10.927Z,6.73
2023-05-08T14:07:37.764Z,7.00
2023-05-08T14:10:04.935Z,6.73
2023-05-08T14:12:35.775Z,6.70
2023-05-08T14:15:03.977Z,6.90
2023-05-08T14:17:30.691Z,6.33
2023-05-08T14:19:57.301Z,7.10
2023-05-08T14:22:25.292Z,7.20
2023-05-08T14:24:52.906Z,6.80
2023-05-08T14:27:19.656Z,7.13
2023-05-08T14:29:46.394Z,6.50
2023-05-08T14:32:13.090Z,6.73
2023-05-08T14:34:39.697Z,8.43
2023-05-08T14:37:06.368Z,6.77
2023-05-08T14:39:32.968Z,6.83
2023-05-08T14:42:21.502Z,6.53
2023-05-08T14:44:48.382Z,10.47
2023-05-08T14:47:15.011Z,6.37
2023-05-08T14:49:41.610Z,6.60
2023-05-08T14:52:08.348Z,6.80
2023-05-08T14:54:35.275Z,6.33
2023-05-08T14:57:02.220Z,7.47
2023-05-08T14:59:28.922Z,7.20
2023-05-08T15:01:55.613Z,7.37
2023-05-08T15:04:22.308Z,6.47
2023-05-08T15:06:48.998Z,6.07
2023-05-08T15:09:26.553Z,8.13
2023-05-08T15:11:53.192Z,5.73
2023-05-08T15:14:19.865Z,5.87
2023-05-08T15:16:46.542Z,5.53
2023-05-08T15:19:13.267Z,5.87
2023-05-08T15:21:39.882Z,6.80
2023-05-08T15:24:06.956Z,6.13
2023-05-08T15:26:33.648Z,5.67
2023-05-08T15:29:00.668Z,5.90
2023-05-08T15:31:27.343Z,6.30
2023-05-08T15:33:53.987Z,6.83
2023-05-08T15:36:28.466Z,6.00
2023-05-08T15:38:55.250Z,5.40
2023-05-08T15:41:22.044Z,5.63
2023-05-08T15:43:48.633Z,6.20
2023-05-08T15:46:15.484Z,5.70
2023-05-08T15:48:42.270Z,5.80
2023-05-08T15:51:08.971Z,7.03
2023-05-08T15:53:35.780Z,6.00
2023-05-08T15:56:05.663Z,6.17
2023-05-08T15:58:32.414Z,5.93
2023-05-08T16:00:59.085Z,5.20
2023-05-08T16:03:25.852Z,5.53
2023-05-08T16:05:52.515Z,5.53
2023-05-08T16:08:19.170Z,8.77
2023-05-08T16:10:45.884Z,5.63
2023-05-08T16:13:12.605Z,5.67
2023-05-08T16:15:39.335Z,5.47
2023-05-08T16:18:06.729Z,5.60
2023-05-08T16:20:35.699Z,5.47
2023-05-08T16:23:02.961Z,4.90
2023-05-08T16:25:29.612Z,5.70
2023-05-08T16:27:56.312Z,5.63
2023-05-08T16:30:22.950Z,10.03
2023-05-08T16:32:49.647Z,4.93
2023-05-08T16:35:16.897Z,5.90
2023-05-08T16:37:43.877Z,6.77
2023-05-08T16:40:11.025Z,5.37
2023-05-08T16:42:37.811Z,5.20
2023-05-08T16:45:08.389Z,5.97
2023-05-08T16:47:35.452Z,4.87
2023-05-08T16:50:02.776Z,5.00
2023-05-08T16:52:29.412Z,5.57
2023-05-08T16:54:56.037Z,4.60
2023-05-08T16:57:22.745Z,5.50
2023-05-08T16:59:49.566Z,4.83
2023-05-08T17:02:18.913Z,4.80
2023-05-08T17:04:49.735Z,4.87
2023-05-08T17:07:17.203Z,4.63
2023-05-08T17:09:44.094Z,4.73
2023-05-08T17:12:10.906Z,4.73
2023-05-08T17:14:39.341Z,3.93
2023-05-08T17:17:06.494Z,4.40
2023-05-08T17:19:33.161Z,4.30
2023-05-08T17:22:00.035Z,4.67
2023-05-08T17:24:27.370Z,6.70
2023-05-08T17:26:54.049Z,4.53
2023-05-08T17:29:22.132Z,4.90
2023-05-08T17:31:48.792Z,4.40
2023-05-08T17:34:15.725Z,4.20
2023-05-08T17:36:43.368Z,4.37
2023-05-08T17:39:10.027Z,4.87
2023-05-08T17:41:36.708Z,4.20
2023-05-08T17:44:04.228Z,4.00
2023-05-08T17:46:30.870Z,6.00
2023-05-08T17:48:57.610Z,6.17
2023-05-08T17:51:24.767Z,3.93
2023-05-08T17:53:53.003Z,4.43
2023-05-08T17:56:21.143Z,4.20
2023-05-08T17:58:47.837Z,4.60
2023-05-08T18:01:14.744Z,4.30
2023-05-08T18:03:41.873Z,4.13
2023-05-08T18:06:08.620Z,6.33
2023-05-08T18:08:35.384Z,7.20
2023-05-08T18:11:02.053Z,3.90
2023-05-08T18:13:28.796Z,3.93
2023-05-08T18:15:55.562Z,4.13
2023-05-08T18:18:22.227Z,3.70
2023-05-08T18:20:48.895Z,3.57
2023-05-08T18:23:15.902Z,3.67
2023-05-08T18:25:42.771Z,4.07
2023-05-08T18:28:09.412Z,3.90
2023-05-08T18:30:38.074Z,4.47
2023-05-08T18:33:04.790Z,4.40
2023-05-08T18:35:31.658Z,3.80
2023-05-08T18:37:58.321Z,4.37
2023-05-08T18:40:24.967Z,4.37
2023-05-08T18:42:51.644Z,4.17
2023-05-08T18:45:18.404Z,5.53
2023-05-08T18:47:45.074Z,4.50
2023-05-08T18:50:12.121Z,10.27
2023-05-08T18:52:39.181Z,4.40
2023-05-08T18:55:06.588Z,4.53
2023-05-08T18:57:33.432Z,4.30
2023-05-08T19:00:00.148Z,4.77
2023-05-08T19:02:29.929Z,4.50
2023-05-08T19:04:56.653Z,7.40
2023-05-08T19:07:23.323Z,4.97
2023-05-08T19:09:50.071Z,6.80
2023-05-08T19:12:16.759Z,4.00
2023-05-08T19:14:43.542Z,4.13
2023-05-08T19:17:10.168Z,4.43
2023-05-08T19:19:36.796Z,3.87
2023-05-08T19:22:03.468Z,5.13
2023-05-08T19:24:30.821Z,4.87
2023-05-08T19:26:58.865Z,4.50
2023-05-08T19:29:25.606Z,5.10
2023-05-08T19:31:52.599Z,4.20
2023-05-08T19:34:19.389Z,4.43
2023-05-08T19:36:46.252Z,4.20
2023-05-08T19:39:13.690Z,6.40
2023-05-08T19:41:40.369Z,5.03
2023-05-08T19:44:07.051Z,4.43
2023-05-08T19:46:33.651Z,4.43
2023-05-08T19:49:00.405Z,4.60
2023-05-08T19:51:27.074Z,5.93
2023-05-08T19:53:53.679Z,4.43
2023-05-08T19:56:21.056Z,4.87
2023-05-08T19:58:47.700Z,4.80
2023-05-08T20:01:14.423Z,6.33
2023-05-08T20:03:41.205Z,6.63
2023-05-08T20:06:07.913Z,4.47
2023-05-08T20:08:34.582Z,6.90
2023-05-08T20:11:03.870Z,6.03
2023-05-08T20:13:30.488Z,5.17
2023-05-08T20:15:58.505Z,4.67
2023-05-08T20:18:25.658Z,6.57
2023-05-08T20:20:52.342Z,6.63
2023-05-08T20:23:19.169Z,5.97
2023-05-08T20:25:47.579Z,4.27
2023-05-08T20:28:22.170Z,4.47
2023-05-08T20:30:49.154Z,6.47
2023-05-08T20:33:15.920Z,5.37
2023-05-08T20:35:42.743Z,4.37
2023-05-08T20:38:09.454Z,4.00
2023-05-08T20:40:36.660Z,7.80
2023-05-08T20:43:03.306Z,4.20
2023-05-08T20:45:29.922Z,4.30
2023-05-08T20:47:56.857Z,7.33
2023-05-08T20:50:23.583Z,5.43
2023-05-08T20:52:50.448Z,4.27
2023-05-08T20:55:17.135Z,4.30
2023-05-08T20:57:43.865Z,4.30
2023-05-08T21:00:11.053Z,4.67
2023-05-08T21:02:40.114Z,4.10
2023-05-08T21:05:10.254Z,6.60
2023-05-08T21:07:37.064Z,4.50
2023-05-08T21:10:04.002Z,4.80
2023-05-08T21:12:30.606Z,4.23
2023-05-08T21:14:57.287Z,6.03
2023-05-08T21:17:23.963Z,4.37
2023-05-08T21:19:50.813Z,4.60
2023-05-08T21:22:17.570Z,5.97
2023-05-08T21:24:44.615Z,4.17
2023-05-08T21:27:11.258Z,6.23
2023-05-08T21:29:37.848Z,4.03
2023-05-08T21:32:04.717Z,4.20
2023-05-08T21:34:31.454Z,4.40
2023-05-08T21:36:58.108Z,4.20
2023-05-08T21:39:24.729Z,4.03
2023-05-08T21:41:51.352Z,7.53
2023-05-08T21:44:18.043Z,3.90
2023-05-08T21:46:44.801Z,4.80
2023-05-08T21:49:11.474Z,4.37
2023-05-08T21:51:38.145Z,4.23
2023-05-08T21:54:04.786Z,4.10
2023-05-08T21:56:31.411Z,4.37
2023-05-08T21:58:58.020Z,4.13
2023-05-08T22:01:24.699Z,4.87
2023-05-08T22:03:51.391Z,4.90
2023-05-08T22:06:18.088Z,4.53
2023-05-08T22:08:44.706Z,4.50
2023-05-08T22:11:11.387Z,4.20
2023-05-08T22:13:38.094Z,4.30
2023-05-08T22:16:05.317Z,4.53
2023-05-08T22:18:32.064Z,4.77
2023-05-08T22:20:58.703Z,5.27
2023-05-08T22:23:26.206Z,5.20
2023-05-08T22:25:52.854Z,4.40
2023-05-08T22:28:19.479Z,6.43
2023-05-08T22:30:46.320Z,4.67
2023-05-08T22:33:12.938Z,4.50
2023-05-08T22:35:39.627Z,4.70
2023-05-08T22:38:06.243Z,5.00
2023-05-08T22:40:33.934Z,5.10
2023-05-08T22:43:00.990Z,4.00
2023-05-08T22:45:27.953Z,4.77
2023-05-08T22:47:55.343Z,5.70
2023-05-08T22:50:22.109Z,4.73
2023-05-08T22:52:48.725Z,4.53
2023-05-08T22:55:16.097Z,4.87
2023-05-08T22:57:43.291Z,4.40
2023-05-08T23:00:10.499Z,5.23
2023-05-08T23:02:37.260Z,5.10
2023-05-08T23:05:04.323Z,4.67
2023-05-08T23:07:31.188Z,4.40
2023-05-08T23:09:57.868Z,4.60
2023-05-08T23:12:24.510Z,5.83
2023-05-08T23:14:52.065Z,4.10
2023-05-08T23:17:18.777Z,6.10
2023-05-08T23:19:47.140Z,4.43
2023-05-08T23:22:13.781Z,4.67
2023-05-08T23:24:40.430Z,5.47
2023-05-08T23:27:07.053Z,4.90
2023-05-08T23:29:33.685Z,6.20
2023-05-08T23:32:00.646Z,6.00
2023-05-08T23:34:27.389Z,5.27
2023-05-08T23:36:54.077Z,4.60
2023-05-08T23:39:20.688Z,5.03
2023-05-08T23:41:47.547Z,4.60
2023-05-08T23:44:15.181Z,4.97
2023-05-08T23:46:42.044Z,4.60
2023-05-08T23:49:08.725Z,4.97
2023-05-08T23:51:35.402Z,4.90
2023-05-08T23:54:02.156Z,4.77
2023-05-08T23:56:29.848Z,5.43
2023-05-08T23:58:56.865Z,7.50
